Time;durP1;ratioP1;P1;durP2;ratioP2;P2;SDS_P1;SDS_P2;PMS_P1;PMS_P2;Temp;Humidity;BMP_temperature;BMP_pressure;BME280_temperature;BME280_humidity;BME280_pressure;Samples;Min_cycle;Max_cycle;Signal;HPM_P1;HPM_P2
2023/01/02 00:01:39;;;;;;;2.75;2.55;;;;;;;;;;4952068;28;20494;-84
2023/01/02 00:04:07;;;;;;;3.97;3.05;;;;;;;;;;4962730;28;20518;-84
2023/01/02 00:06:38;;;;;;;3.40;3.08;;;;;;;;;;4929176;28;20058;-83
2023/01/02 00:09:07;;;;;;;3.03;2.75;;;;;;;;;;4960167;28;20039;-83
2023/01/02 00:11:34;;;;;;;6.28;3.53;;;;;;;;;;4960515;28;20047;-84
2023/01/02 00:14:02;;;;;;;3.45;3.15;;;;;;;;;;4963093;28;20051;-84
2023/01/02 00:16:30;;;;;;;2.33;2.13;;;;;;;;;;4946862;28;20047;-83
2023/01/02 00:18:58;;;;;;;4.38;3.33;;;;;;;;;;4927020;28;20055;-83
2023/01/02 00:21:26;;;;;;;3.83;3.03;;;;;;;;;;4965289;28;20043;-84
2023/01/02 00:23:54;;;;;;;4.53;2.80;;;;;;;;;;4943791;28;20047;-84
2023/01/02 00:26:29;;;;;;;4.82;3.10;;;;;;;;;;4960699;28;20039;-84
2023/01/02 00:28:56;;;;;;;3.17;3.03;;;;;;;;;;4943597;28;20058;-84
2023/01/02 00:31:25;;;;;;;4.75;4.43;;;;;;;;;;4961040;28;20050;-84
2023/01/02 00:33:53;;;;;;;3.35;2.97;;;;;;;;;;4962433;28;20055;-83
2023/01/02 00:36:22;;;;;;;3.78;3.20;;;;;;;;;;4959324;28;20047;-84
2023/01/02 00:38:50;;;;;;;3.60;3.30;;;;;;;;;;4944399;28;20097;-84
2023/01/02 00:41:20;;;;;;;7.00;2.35;;;;;;;;;;4944580;28;20051;-84
2023/01/02 00:43:47;;;;;;;7.95;3.95;;;;;;;;;;4960623;28;20047;-84
2023/01/02 00:46:17;;;;;;;3.30;2.97;;;;;;;;;;4945484;28;20507;-83
2023/01/02 00:48:45;;;;;;;4.57;4.13;;;;;;;;;;4942295;28;20050;-84
2023/01/02 00:51:15;;;;;;;3.90;3.22;;;;;;;;;;4953188;28;20058;-84
2023/01/02 00:53:43;;;;;;;9.65;4.47;;;;;;;;;;4942902;28;20046;-83
2023/01/02 00:56:11;;;;;;;10.82;5.53;;;;;;;;;;4941511;28;20557;-84
2023/01/02 00:58:42;;;;;;;7.50;3.50;;;;;;;;;;4928556;28;20053;-83
2023/01/02 01:01:10;;;;;;;5.70;4.78;;;;;;;;;;4943309;28;20050;-83
2023/01/02 01:03:42;;;;;;;4.13;3.75;;;;;;;;;;4959201;28;20035;-83
2023/01/02 01:06:10;;;;;;;5.70;4.60;;;;;;;;;;4960000;28;20069;-84
2023/01/02 01:08:38;;;;;;;3.33;2.90;;;;;;;;;;4927633;28;20051;-83
2023/01/02 01:11:07;;;;;;;4.03;3.00;;;;;;;;;;4927354;28;20047;-83
2023/01/02 01:13:37;;;;;;;5.20;4.15;;;;;;;;;;4958069;28;20047;-84
2023/01/02 01:16:05;;;;;;;5.13;2.90;;;;;;;;;;4943670;28;20043;-83
2023/01/02 01:18:33;;;;;;;2.90;2.67;;;;;;;;;;4944155;28;20058;-83
2023/01/02 01:21:11;;;;;;;4.90;3.08;;;;;;;;;;4964976;28;20058;-83
2023/01/02 01:23:44;;;;;;;2.83;2.63;;;;;;;;;;4959813;28;20565;-83
2023/01/02 01:26:13;;;;;;;2.90;2.50;;;;;;;;;;4912358;28;20047;-83
2023/01/02 01:28:41;;;;;;;3.13;2.83;;;;;;;;;;4944109;28;20049;-83
2023/01/02 01:31:10;;;;;;;3.70;2.70;;;;;;;;;;4970688;28;20062;-83
2023/01/02 01:33:39;;;;;;;8.35;6.13;;;;;;;;;;4969748;28;20050;-83
2023/01/02 01:36:07;;;;;;;4.45;2.63;;;;;;;;;;4970044;28;20051;-83
2023/01/02 01:38:36;;;;;;;2.50;2.28;;;;;;;;;;4952359;28;20034;-83
2023/01/02 01:41:04;;;;;;;5.68;3.40;;;;;;;;;;4969643;28;20057;-83
2023/01/02 01:43:39;;;;;;;11.45;4.13;;;;;;;;;;4969810;28;20045;-83
2023/01/02 01:46:15;;;;;;;3.28;2.72;;;;;;;;;;4970616;28;20062;-83
2023/01/02 01:48:44;;;;;;;3.80;2.85;;;;;;;;;;4969832;28;20051;-83
2023/01/02 01:51:13;;;;;;;2.92;2.42;;;;;;;;;;4952216;28;20506;-83
2023/01/02 01:53:41;;;;;;;3.83;3.33;;;;;;;;;;4936050;28;20066;-83
2023/01/02 01:56:10;;;;;;;3.83;2.85;;;;;;;;;;4969136;28;20055;-83
2023/01/02 01:58:41;;;;;;;3.13;1.83;;;;;;;;;;4970333;28;20414;-83
2023/01/02 02:01:14;;;;;;;3.72;2.75;;;;;;;;;;4970305;28;20399;-84
2023/01/02 02:03:46;;;;;;;3.05;2.75;;;;;;;;;;4952120;28;20074;-83
2023/01/02 02:06:18;;;;;;;2.20;2.10;;;;;;;;;;4969513;28;20055;-84
2023/01/02 02:08:49;;;;;;;3.50;2.75;;;;;;;;;;4968610;28;20572;-84
2023/01/02 02:11:20;;;;;;;2.88;2.00;;;;;;;;;;4952132;28;20055;-83
2023/01/02 02:13:48;;;;;;;3.38;2.58;;;;;;;;;;4970577;28;20504;-83
2023/01/02 02:16:17;;;;;;;2.53;2.33;;;;;;;;;;4969243;28;20046;-84
2023/01/02 02:18:53;;;;;;;2.42;2.00;;;;;;;;;;4969917;28;20051;-83
2023/01/02 02:21:33;;;;;;;3.97;2.13;;;;;;;;;;4966444;28;20051;-83
2023/01/02 02:24:07;;;;;;;2.85;2.22;;;;;;;;;;4969369;28;20061;-84
2023/01/02 02:26:38;;;;;;;2.38;2.28;;;;;;;;;;4989406;28;20082;-83
2023/01/02 02:29:19;;;;;;;3.28;2.97;;;;;;;;;;4974233;28;20039;-84
2023/01/02 02:31:57;;;;;;;2.28;2.13;;;;;;;;;;4950442;28;20047;-83
2023/01/02 02:34:39;;;;;;;4.50;2.30;;;;;;;;;;4953833;28;20051;-84
2023/01/02 02:37:28;;;;;;;2.15;1.73;;;;;;;;;;4935757;29;20044;-83
2023/01/02 02:40:08;;;;;;;2.35;2.22;;;;;;;;;;4926164;28;20507;-84
2023/01/02 02:42:44;;;;;;;1.47;1.37;;;;;;;;;;4953835;28;20047;-83
2023/01/02 02:45:15;;;;;;;1.98;1.75;;;;;;;;;;4952491;29;20286;-84
2023/01/02 02:48:00;;;;;;;1.40;1.40;;;;;;;;;;4954207;29;20510;-84
2023/01/02 02:50:40;;;;;;;4.55;2.50;;;;;;;;;;4953529;28;20074;-83
2023/01/02 02:53:10;;;;;;;2.55;1.20;;;;;;;;;;4952556;29;20443;-83
2023/01/02 02:55:43;;;;;;;1.30;1.20;;;;;;;;;;4953224;28;20047;-84
2023/01/02 02:58:12;;;;;;;1.48;1.35;;;;;;;;;;4936304;29;20051;-84
2023/01/02 03:00:40;;;;;;;2.10;1.50;;;;;;;;;;4953006;29;20047;-84
2023/01/02 03:03:15;;;;;;;3.28;1.92;;;;;;;;;;4953532;29;20051;-84
2023/01/02 03:05:46;;;;;;;2.05;1.85;;;;;;;;;;4953216;29;20054;-84
2023/01/02 03:08:22;;;;;;;1.65;1.55;;;;;;;;;;4948221;28;20078;-84
2023/01/02 03:10:59;;;;;;;1.77;1.67;;;;;;;;;;4953420;28;20058;-84
2023/01/02 03:13:45;;;;;;;5.13;1.77;;;;;;;;;;4953446;28;20648;-84
2023/01/02 03:16:17;;;;;;;2.28;1.88;;;;;;;;;;4936195;29;20051;-84
2023/01/02 03:18:53;;;;;;;1.35;1.15;;;;;;;;;;4936537;29;20423;-84
2023/01/02 03:21:22;;;;;;;1.33;1.23;;;;;;;;;;4982325;28;20089;-84
2023/01/02 03:24:00;;;;;;;2.50;2.30;;;;;;;;;;4972737;28;20429;-84
2023/01/02 03:26:30;;;;;;;3.20;1.70;;;;;;;;;;4974761;28;20058;-84
2023/01/02 03:29:01;;;;;;;1.80;1.67;;;;;;;;;;4961902;28;20052;-84
2023/01/02 03:31:30;;;;;;;1.40;1.30;;;;;;;;;;4935713;29;20070;-84
2023/01/02 03:34:06;;;;;;;2.85;2.08;;;;;;;;;;4935871;29;20059;-84
2023/01/02 03:36:36;;;;;;;4.57;2.20;;;;;;;;;;4953167;29;20062;-84
2023/01/02 03:39:11;;;;;;;1.52;1.42;;;;;;;;;;4961743;28;20051;-84
2023/01/02 03:41:45;;;;;;;1.48;1.38;;;;;;;;;;4954072;28;20046;-84
2023/01/02 03:44:15;;;;;;;1.15;1.15;;;;;;;;;;4973798;28;20065;-84
2023/01/02 03:46:47;;;;;;;1.57;1.47;;;;;;;;;;4974687;28;20073;-84
2023/01/02 03:49:15;;;;;;;1.20;1.10;;;;;;;;;;4957680;28;20815;-84
2023/01/02 03:51:43;;;;;;;2.47;1.63;;;;;;;;;;4991051;28;20048;-84
2023/01/02 03:54:10;;;;;;;5.05;1.70;;;;;;;;;;4989241;28;20509;-84
2023/01/02 03:56:48;;;;;;;1.40;1.30;;;;;;;;;;4957904;28;20038;-84
2023/01/02 03:59:15;;;;;;;4.18;2.90;;;;;;;;;;4973680;28;20050;-84
2023/01/02 04:02:08;;;;;;;2.90;1.25;;;;;;;;;;4991590;28;20058;-84
2023/01/02 04:04:45;;;;;;;1.33;1.23;;;;;;;;;;4981094;28;20061;-84
2023/01/02 04:07:17;;;;;;;;;;;;;;;;;;4990619;28;20061;-84
2023/01/02 04:09:47;;;;;;;1.60;1.52;;;;;;;;;;4990834;28;20302;-84
2023/01/02 04:12:16;;;;;;;1.88;1.77;;;;;;;;;;4973794;28;20054;-84
2023/01/02 04:14:49;;;;;;;2.33;2.13;;;;;;;;;;4991066;28;20433;-84
2023/01/02 04:17:19;;;;;;;1.70;1.60;;;;;;;;;;4990672;28;20047;-84
2023/01/02 04:19:51;;;;;;;1.38;1.30;;;;;;;;;;4987437;28;20035;-83
2023/01/02 04:22:26;;;;;;;1.20;1.10;;;;;;;;;;4937774;28;20050;-84
2023/01/02 04:24:56;;;;;;;1.98;1.80;;;;;;;;;;4953448;28;20046;-84
2023/01/02 04:27:24;;;;;;;1.73;1.30;;;;;;;;;;4971841;28;20422;-84
2023/01/02 04:29:52;;;;;;;1.98;1.88;;;;;;;;;;4971440;28;20069;-84
2023/01/02 04:32:22;;;;;;;1.42;1.33;;;;;;;;;;4970161;28;20058;-84
2023/01/02 04:34:54;;;;;;;3.88;1.40;;;;;;;;;;4970370;28;20054;-84
2023/01/02 04:37:29;;;;;;;1.73;1.63;;;;;;;;;;4969377;28;20094;-84
2023/01/02 04:40:00;;;;;;;2.00;1.52;;;;;;;;;;4981680;28;20115;-84
2023/01/02 04:42:28;;;;;;;0.97;0.93;;;;;;;;;;4971054;28;20050;-84
2023/01/02 04:44:56;;;;;;;1.98;1.40;;;;;;;;;;4953788;28;20506;-84
2023/01/02 04:47:30;;;;;;;1.73;1.63;;;;;;;;;;4971125;28;20510;-84
2023/01/02 04:49:57;;;;;;;3.22;1.92;;;;;;;;;;4953941;28;20074;-84
2023/01/02 04:52:25;;;;;;;1.38;1.27;;;;;;;;;;4969143;28;20496;-84
2023/01/02 04:54:58;;;;;;;2.72;1.95;;;;;;;;;;4953491;28;20059;-84
2023/01/02 04:57:26;;;;;;;1.60;1.50;;;;;;;;;;4969560;28;20046;-84
2023/01/02 04:59:54;;;;;;;1.67;1.42;;;;;;;;;;4970710;28;20470;-84
2023/01/02 05:02:22;;;;;;;3.10;2.10;;;;;;;;;;4953895;28;20054;-84
2023/01/02 05:04:53;;;;;;;1.73;1.50;;;;;;;;;;4952879;28;20063;-84
2023/01/02 05:07:21;;;;;;;3.90;1.27;;;;;;;;;;4951879;28;20569;-84
2023/01/02 05:09:49;;;;;;;2.53;1.27;;;;;;;;;;4970488;28;20782;-83
2023/01/02 05:12:17;;;;;;;2.33;1.83;;;;;;;;;;4985095;28;20054;-83
2023/01/02 05:14:47;;;;;;;1.25;1.15;;;;;;;;;;4922287;28;20062;-84
2023/01/02 05:17:22;;;;;;;1.10;1.00;;;;;;;;;;4937530;28;20051;-84
2023/01/02 05:19:50;;;;;;;2.22;1.50;;;;;;;;;;4954600;28;20046;-84
2023/01/02 05:25:08;;;;;;;1.15;1.15;;;;;;;;;;4989342;28;20065;-84
2023/01/02 05:27:36;;;;;;;1.63;1.52;;;;;;;;;;4971247;28;20054;-84
2023/01/02 05:30:05;;;;;;;1.55;1.35;;;;;;;;;;4964209;28;20050;-84
2023/01/02 05:32:32;;;;;;;1.45;0.93;;;;;;;;;;4971038;28;20042;-84
2023/01/02 05:35:00;;;;;;;2.60;1.02;;;;;;;;;;4970234;28;20053;-83
2023/01/02 05:37:29;;;;;;;1.65;1.55;;;;;;;;;;4977259;28;20073;-84
2023/01/02 05:39:57;;;;;;;1.20;1.08;;;;;;;;;;4935128;29;20062;-84
2023/01/02 05:42:25;;;;;;;1.10;1.10;;;;;;;;;;4950225;29;20058;-84
2023/01/02 05:44:54;;;;;;;1.25;1.20;;;;;;;;;;4948508;28;20058;-84
2023/01/02 05:47:22;;;;;;;1.60;1.50;;;;;;;;;;4949685;28;20518;-84
2023/01/02 05:49:50;;;;;;;2.80;2.55;;;;;;;;;;4947983;28;20051;-83
2023/01/02 05:52:18;;;;;;;1.90;1.17;;;;;;;;;;4948730;28;20047;-84
2023/01/02 05:54:46;;;;;;;1.48;1.38;;;;;;;;;;4931760;29;20058;-83
2023/01/02 05:57:15;;;;;;;1.27;1.27;;;;;;;;;;4959052;28;20709;-83
2023/01/02 05:59:43;;;;;;;1.00;0.90;;;;;;;;;;4955808;28;20039;-84
2023/01/02 06:02:10;;;;;;;1.50;1.40;;;;;;;;;;4950991;28;20043;-84
2023/01/02 06:04:38;;;;;;;1.98;1.77;;;;;;;;;;4951612;28;20514;-84
2023/01/02 06:07:06;;;;;;;1.70;1.38;;;;;;;;;;4950361;28;20051;-84
2023/01/02 06:09:34;;;;;;;3.63;1.30;;;;;;;;;;4949416;29;20051;-84
2023/01/02 06:12:03;;;;;;;3.88;1.90;;;;;;;;;;4948976;29;20507;-84
2023/01/02 06:14:31;;;;;;;1.38;0.98;;;;;;;;;;4950608;28;20054;-84
2023/01/02 06:16:59;;;;;;;2.08;1.42;;;;;;;;;;4933400;29;20058;-83
2023/01/02 06:19:27;;;;;;;1.08;1.08;;;;;;;;;;4948703;28;20055;-84
2023/01/02 06:22:00;;;;;;;1.35;1.25;;;;;;;;;;4931644;29;20062;-84
2023/01/02 06:24:29;;;;;;;1.65;1.55;;;;;;;;;;4921210;28;20042;-84
2023/01/02 06:26:57;;;;;;;1.67;1.58;;;;;;;;;;4969875;28;20058;-84
2023/01/02 06:29:29;;;;;;;2.40;1.45;;;;;;;;;;4949047;28;20054;-84
2023/01/02 06:31:59;;;;;;;2.10;1.40;;;;;;;;;;4929527;28;20459;-84
2023/01/02 06:34:27;;;;;;;1.42;1.33;;;;;;;;;;4930197;29;20056;-84
2023/01/02 06:36:57;;;;;;;2.00;1.10;;;;;;;;;;4928985;28;20416;-84
2023/01/02 06:39:32;;;;;;;1.05;1.05;;;;;;;;;;4954193;28;20047;-84
2023/01/02 06:42:09;;;;;;;3.63;3.30;;;;;;;;;;4932780;29;20511;-84
2023/01/02 06:44:37;;;;;;;1.58;1.33;;;;;;;;;;4916805;29;20065;-84
2023/01/02 06:47:06;;;;;;;1.67;1.58;;;;;;;;;;4949273;29;20055;-84
2023/01/02 06:49:34;;;;;;;1.65;1.55;;;;;;;;;;4932625;29;20058;-84
2023/01/02 06:52:02;;;;;;;2.08;1.42;;;;;;;;;;4931774;29;20051;-84
2023/01/02 06:54:32;;;;;;;1.20;1.20;;;;;;;;;;4957805;28;20058;-84
2023/01/02 06:57:00;;;;;;;1.50;1.40;;;;;;;;;;4968327;28;20395;-84
2023/01/02 06:59:27;;;;;;;2.70;2.50;;;;;;;;;;4950793;28;20442;-84
2023/01/02 07:01:55;;;;;;;4.00;2.40;;;;;;;;;;4969301;28;20063;-84
2023/01/02 07:04:23;;;;;;;1.70;1.42;;;;;;;;;;4951673;28;20039;-84
2023/01/02 07:06:51;;;;;;;1.45;1.35;;;;;;;;;;4969571;28;20514;-84
2023/01/02 07:09:19;;;;;;;1.42;1.33;;;;;;;;;;4966725;28;20062;-84
2023/01/02 07:11:47;;;;;;;1.50;1.40;;;;;;;;;;4968669;28;20046;-84
2023/01/02 07:14:16;;;;;;;2.00;1.17;;;;;;;;;;4980626;28;20062;-84
2023/01/02 07:16:46;;;;;;;1.20;1.20;;;;;;;;;;4971122;28;20545;-84
2023/01/02 07:19:14;;;;;;;1.83;1.65;;;;;;;;;;4972996;28;20062;-84
2023/01/02 07:21:42;;;;;;;1.10;1.10;;;;;;;;;;4974721;28;20057;-84
2023/01/02 07:24:20;;;;;;;3.40;1.35;;;;;;;;;;4973287;28;20517;-84
2023/01/02 07:26:50;;;;;;;1.48;1.33;;;;;;;;;;4958957;28;20057;-84
2023/01/02 07:29:18;;;;;;;1.70;1.60;;;;;;;;;;4978385;28;20046;-84
2023/01/02 07:31:46;;;;;;;1.40;1.30;;;;;;;;;;4971811;28;20043;-84
2023/01/02 07:34:14;;;;;;;2.00;1.50;;;;;;;;;;4972833;28;20043;-84
2023/01/02 07:36:44;;;;;;;2.35;1.77;;;;;;;;;;4955104;28;20050;-84
2023/01/02 07:39:12;;;;;;;1.98;1.77;;;;;;;;;;4976816;28;20532;-84
2023/01/02 07:41:40;;;;;;;1.98;1.88;;;;;;;;;;4971268;28;20053;-84
2023/01/02 07:44:13;;;;;;;3.22;1.65;;;;;;;;;;4986865;28;20047;-83
2023/01/02 07:46:41;;;;;;;1.17;1.17;;;;;;;;;;4939606;28;20046;-84
2023/01/02 07:49:11;;;;;;;1.63;1.52;;;;;;;;;;4971068;28;20050;-84
2023/01/02 07:51:39;;;;;;;1.67;1.58;;;;;;;;;;4972104;28;20050;-84
2023/01/02 07:54:07;;;;;;;2.22;2.10;;;;;;;;;;4938148;28;20062;-83
2023/01/02 07:56:35;;;;;;;4.25;1.50;;;;;;;;;;4954768;28;20051;-84
2023/01/02 07:59:12;;;;;;;3.40;1.42;;;;;;;;;;4955762;28;20521;-84
2023/01/02 08:01:41;;;;;;;1.25;1.25;;;;;;;;;;4954629;28;20043;-84
2023/01/02 08:04:10;;;;;;;2.08;1.50;;;;;;;;;;4954203;28;20047;-84
2023/01/02 08:06:44;;;;;;;2.72;2.53;;;;;;;;;;4972533;28;20046;-83
2023/01/02 08:09:12;;;;;;;4.22;1.70;;;;;;;;;;4969630;28;20046;-84
2023/01/02 08:11:40;;;;;;;3.78;1.73;;;;;;;;;;4954268;28;20510;-84
2023/01/02 08:14:09;;;;;;;2.20;2.03;;;;;;;;;;4954619;28;20077;-84
2023/01/02 08:16:36;;;;;;;3.30;2.88;;;;;;;;;;4971400;28;20050;-84
2023/01/02 08:19:05;;;;;;;1.33;1.23;;;;;;;;;;4972403;28;20062;-84
2023/01/02 08:21:32;;;;;;;3.80;1.95;;;;;;;;;;4987367;28;20050;-84
2023/01/02 08:24:01;;;;;;;1.48;1.10;;;;;;;;;;4971270;28;20046;-84
2023/01/02 08:26:28;;;;;;;1.30;1.20;;;;;;;;;;4973956;28;20114;-84
2023/01/02 08:28:58;;;;;;;2.88;1.95;;;;;;;;;;4984260;28;20042;-84
2023/01/02 08:31:27;;;;;;;3.45;3.22;;;;;;;;;;4953242;28;20499;-84
2023/01/02 08:33:55;;;;;;;3.53;1.50;;;;;;;;;;4971620;28;20055;-84
2023/01/02 08:36:23;;;;;;;1.27;1.17;;;;;;;;;;4953768;28;20061;-84
2023/01/02 08:38:51;;;;;;;1.77;1.30;;;;;;;;;;4970553;28;20410;-83
2023/01/02 08:41:36;;;;;;;1.20;1.10;;;;;;;;;;4937706;28;20043;-84
2023/01/02 08:44:06;;;;;;;1.48;1.27;;;;;;;;;;4953864;28;20086;-84
2023/01/02 08:46:35;;;;;;;1.35;1.05;;;;;;;;;;4971559;28;20047;-84
2023/01/02 08:49:09;;;;;;;1.88;1.20;;;;;;;;;;4953658;28;20391;-83
2023/01/02 08:51:39;;;;;;;1.30;1.20;;;;;;;;;;4953496;28;20041;-84
2023/01/02 08:54:07;;;;;;;1.55;1.20;;;;;;;;;;4970260;28;20066;-84
2023/01/02 08:56:40;;;;;;;1.35;1.25;;;;;;;;;;4953892;28;20439;-84
2023/01/02 08:59:10;;;;;;;1.00;1.00;;;;;;;;;;4969970;28;20065;-84
2023/01/02 09:01:38;;;;;;;2.90;1.20;;;;;;;;;;4952895;28;20050;-84
2023/01/02 09:04:07;;;;;;;2.22;2.00;;;;;;;;;;4970320;28;20046;-84
2023/01/02 09:06:40;;;;;;;2.17;1.38;;;;;;;;;;4938429;28;20065;-84
2023/01/02 09:09:09;;;;;;;1.50;0.98;;;;;;;;;;4951782;28;20414;-84
2023/01/02 09:11:44;;;;;;;1.15;1.10;;;;;;;;;;4970192;28;20792;-84
2023/01/02 09:14:12;;;;;;;2.05;1.20;;;;;;;;;;4937798;28;20070;-84
2023/01/02 09:16:40;;;;;;;0.98;0.98;;;;;;;;;;4970880;28;20057;-84
2023/01/02 09:19:08;;;;;;;3.60;1.80;;;;;;;;;;4937758;28;20051;-84
2023/01/02 09:21:36;;;;;;;2.28;2.17;;;;;;;;;;4936795;28;20055;-84
2023/01/02 09:24:06;;;;;;;2.20;2.00;;;;;;;;;;4950941;28;20770;-84
2023/01/02 09:26:36;;;;;;;1.67;1.27;;;;;;;;;;4953703;28;20429;-84
2023/01/02 09:29:04;;;;;;;1.02;1.00;;;;;;;;;;4949748;28;20525;-84
2023/01/02 09:31:34;;;;;;;1.70;1.20;;;;;;;;;;4949346;28;20051;-84
2023/01/02 09:34:02;;;;;;;1.67;1.20;;;;;;;;;;4951309;29;20054;-85
2023/01/02 09:36:31;;;;;;;1.00;1.00;;;;;;;;;;4951021;28;20055;-85
2023/01/02 09:39:00;;;;;;;1.15;1.13;;;;;;;;;;4932541;28;20047;-85
2023/01/02 09:41:34;;;;;;;3.67;1.23;;;;;;;;;;4950150;28;20378;-85
2023/01/02 09:44:21;;;;;;;1.50;1.15;;;;;;;;;;4941559;28;20051;-85
2023/01/02 09:46:53;;;;;;;1.42;1.30;;;;;;;;;;4929049;29;20407;-85
2023/01/02 09:49:23;;;;;;;1.10;1.00;;;;;;;;;;4950561;29;20050;-85
2023/01/02 09:51:51;;;;;;;2.47;2.25;;;;;;;;;;4915998;29;20047;-85
2023/01/02 09:54:30;;;;;;;1.00;0.90;;;;;;;;;;4915782;29;20055;-85
2023/01/02 09:57:17;;;;;;;1.25;0.98;;;;;;;;;;4949434;28;20058;-85
2023/01/02 10:00:05;;;;;;;1.27;1.17;;;;;;;;;;4953728;28;20062;-84
2023/01/02 10:02:59;;;;;;;0.80;0.80;;;;;;;;;;4951596;28;20417;-85
2023/01/02 10:05:40;;;;;;;1.25;0.82;;;;;;;;;;4952330;28;20634;-85
2023/01/02 10:08:23;;;;;;;0.77;0.77;;;;;;;;;;4967400;28;20058;-85
2023/01/02 10:11:23;;;;;;;1.05;0.90;;;;;;;;;;4951069;28;20050;-85
2023/01/02 10:13:51;;;;;;;2.83;1.10;;;;;;;;;;4964227;28;20039;-85
2023/01/02 10:16:42;;;;;;;1.55;0.90;;;;;;;;;;4961355;28;20474;-85
2023/01/02 10:19:21;;;;;;;1.33;1.23;;;;;;;;;;4968390;28;20055;-84
2023/01/02 10:21:53;;;;;;;1.20;0.90;;;;;;;;;;4965914;28;20043;-84
2023/01/02 10:24:27;;;;;;;1.40;1.10;;;;;;;;;;4933079;28;20569;-84
2023/01/02 10:26:56;;;;;;;1.23;1.13;;;;;;;;;;4952922;28;20476;-85
2023/01/02 10:29:29;;;;;;;2.00;0.90;;;;;;;;;;4952195;28;20050;-85
2023/01/02 10:32:11;;;;;;;1.65;1.15;;;;;;;;;;4966034;28;20427;-85
2023/01/02 10:34:55;;;;;;;1.88;1.77;;;;;;;;;;4933196;29;20080;-85
2023/01/02 10:37:26;;;;;;;1.50;1.30;;;;;;;;;;4959789;28;20474;-84
2023/01/02 10:39:54;;;;;;;1.23;1.13;;;;;;;;;;4980245;28;20050;-85
2023/01/02 10:42:25;;;;;;;1.35;1.25;;;;;;;;;;4967274;28;20054;-85
2023/01/02 10:44:53;;;;;;;1.23;1.13;;;;;;;;;;4971174;28;20552;-85
2023/01/02 10:47:37;;;;;;;2.63;1.52;;;;;;;;;;4937370;28;20050;-85
2023/01/02 10:50:06;;;;;;;1.13;1.10;;;;;;;;;;4976295;28;20396;-85
2023/01/02 10:52:37;;;;;;;1.45;1.10;;;;;;;;;;4968117;28;20049;-85
2023/01/02 10:55:05;;;;;;;;;;;;;;;;;;4956198;28;20522;-85
2023/01/02 10:57:34;;;;;;;0.95;0.93;;;;;;;;;;4955270;28;19929;-85
2023/01/02 11:00:03;;;;;;;1.13;1.00;;;;;;;;;;4946782;28;20406;-85
2023/01/02 11:02:36;;;;;;;0.60;0.60;;;;;;;;;;4966225;28;20542;-85
2023/01/02 11:05:05;;;;;;;0.80;0.80;;;;;;;;;;4972028;28;20070;-85
2023/01/02 11:07:35;;;;;;;0.90;0.90;;;;;;;;;;4938793;28;20054;-85
2023/01/02 11:10:04;;;;;;;4.90;1.70;;;;;;;;;;4939295;28;20055;-85
2023/01/02 11:12:45;;;;;;;0.82;0.82;;;;;;;;;;4955179;28;20046;-85
2023/01/02 11:15:13;;;;;;;1.40;0.90;;;;;;;;;;4955274;28;20050;-86
2023/01/02 11:17:44;;;;;;;1.35;1.10;;;;;;;;;;4955499;28;20067;-85
2023/01/02 11:20:24;;;;;;;1.02;0.80;;;;;;;;;;4971962;28;20051;-85
2023/01/02 11:22:54;;;;;;;0.75;0.63;;;;;;;;;;4971944;28;20051;-86
2023/01/02 11:25:24;;;;;;;1.60;1.30;;;;;;;;;;4923175;28;20490;-86
2023/01/02 11:27:52;;;;;;;1.42;1.10;;;;;;;;;;4955188;28;20054;-86
2023/01/02 11:30:28;;;;;;;1.13;0.73;;;;;;;;;;4954365;28;20070;-86
2023/01/02 11:33:16;;;;;;;0.65;0.65;;;;;;;;;;4953154;29;20161;-86
2023/01/02 11:35:48;;;;;;;0.65;0.65;;;;;;;;;;4936060;29;20047;-86
2023/01/02 11:38:21;;;;;;;1.08;0.98;;;;;;;;;;4938209;28;20054;-86
2023/01/02 11:41:02;;;;;;;1.77;0.82;;;;;;;;;;4955405;28;20395;-85
2023/01/02 11:43:50;;;;;;;1.20;0.80;;;;;;;;;;4954395;28;20063;-86
2023/01/02 11:46:22;;;;;;;0.65;0.65;;;;;;;;;;4955110;28;20059;-86
2023/01/02 11:48:52;;;;;;;1.00;0.95;;;;;;;;;;4957762;28;20042;-86
2023/01/02 11:51:21;;;;;;;0.93;0.93;;;;;;;;;;4983045;28;20383;-87
2023/01/02 11:53:52;;;;;;;0.80;0.80;;;;;;;;;;4957682;28;20054;-87
2023/01/02 11:56:40;;;;;;;0.82;0.68;;;;;;;;;;4974020;28;20058;-87
2023/01/02 11:59:27;;;;;;;1.15;0.70;;;;;;;;;;4991898;28;20050;-87
2023/01/02 12:01:56;;;;;;;1.42;1.10;;;;;;;;;;4953679;28;20046;-87
2023/01/02 12:04:24;;;;;;;0.50;0.50;;;;;;;;;;4953153;28;20046;-87
2023/01/02 12:07:03;;;;;;;0.90;0.85;;;;;;;;;;4972764;28;20039;-87
2023/01/02 12:09:50;;;;;;;1.02;0.82;;;;;;;;;;4954026;28;20031;-87
2023/01/02 12:12:31;;;;;;;0.73;0.70;;;;;;;;;;4972243;28;20049;-87
2023/01/02 12:15:18;;;;;;;0.73;0.73;;;;;;;;;;4954869;28;20527;-87
2023/01/02 12:17:57;;;;;;;0.65;0.65;;;;;;;;;;4954117;28;20550;-87
2023/01/02 12:20:30;;;;;;;0.50;0.50;;;;;;;;;;4965762;28;20086;-87
2023/01/02 12:23:17;;;;;;;0.75;0.75;;;;;;;;;;4971595;28;20399;-87
2023/01/02 12:25:52;;;;;;;0.60;0.60;;;;;;;;;;4951593;28;20578;-87
2023/01/02 12:28:40;;;;;;;1.58;0.90;;;;;;;;;;4950794;28;20051;-87
2023/01/02 12:31:11;;;;;;;1.40;0.68;;;;;;;;;;4914301;29;20396;-89
2023/01/02 12:33:45;;;;;;;2.05;0.60;;;;;;;;;;4969069;28;20371;-87
2023/01/02 12:36:17;;;;;;;0.70;0.70;;;;;;;;;;4953078;28;20051;-86
2023/01/02 12:38:45;;;;;;;0.47;0.47;;;;;;;;;;4969864;28;20054;-87
2023/01/02 12:41:16;;;;;;;1.83;1.05;;;;;;;;;;4949541;29;20047;-87
2023/01/02 12:43:53;;;;;;;1.58;1.48;;;;;;;;;;4951577;28;20530;-87
2023/01/02 12:46:25;;;;;;;1.38;0.70;;;;;;;;;;4951724;29;20063;-87
2023/01/02 12:49:00;;;;;;;0.82;0.65;;;;;;;;;;4951979;28;20059;-87
2023/01/02 12:51:37;;;;;;;1.02;0.85;;;;;;;;;;4949962;28;20047;-87
2023/01/02 12:54:13;;;;;;;0.68;0.68;;;;;;;;;;4955482;28;20051;-87
2023/01/02 12:56:59;;;;;;;2.35;0.75;;;;;;;;;;4970430;28;20063;-87
2023/01/02 12:59:46;;;;;;;1.15;0.85;;;;;;;;;;4966211;28;20044;-87
2023/01/02 13:02:15;;;;;;;1.30;1.25;;;;;;;;;;4950526;28;20055;-87
2023/01/02 13:04:48;;;;;;;1.55;1.15;;;;;;;;;;4950611;28;20062;-86
2023/01/02 13:07:20;;;;;;;2.95;0.77;;;;;;;;;;4949571;28;20222;-86
2023/01/02 13:09:49;;;;;;;0.98;0.70;;;;;;;;;;4934012;29;20426;-86
2023/01/02 13:12:21;;;;;;;1.58;0.82;;;;;;;;;;4950279;28;20039;-87
2023/01/02 13:14:59;;;;;;;0.68;0.60;;;;;;;;;;4951366;28;20279;-84
2023/01/02 13:17:29;;;;;;;2.28;0.98;;;;;;;;;;4950698;28;20047;-86
2023/01/02 13:20:00;;;;;;;0.77;0.77;;;;;;;;;;4953035;28;20392;-86
2023/01/02 13:22:28;;;;;;;0.60;0.60;;;;;;;;;;4969859;28;20395;-86
2023/01/02 13:24:59;;;;;;;1.40;0.75;;;;;;;;;;4968884;28;20430;-86
2023/01/02 13:27:27;;;;;;;0.70;0.70;;;;;;;;;;4970737;28;20065;-85
2023/01/02 13:30:01;;;;;;;1.60;0.77;;;;;;;;;;4956126;28;20058;-86
2023/01/02 13:32:30;;;;;;;2.77;0.87;;;;;;;;;;4950777;28;20541;-86
2023/01/02 13:35:03;;;;;;;0.52;0.52;;;;;;;;;;4949963;28;20051;-86
2023/01/02 13:37:31;;;;;;;2.35;0.90;;;;;;;;;;4949536;28;20047;-86
2023/01/02 13:40:00;;;;;;;0.88;0.88;;;;;;;;;;4932948;29;20047;-86
2023/01/02 13:45:27;;;;;;;1.25;1.15;;;;;;;;;;4950350;28;20428;-86
2023/01/02 13:48:01;;;;;;;1.85;0.68;;;;;;;;;;4933128;29;20039;-85
2023/01/02 13:50:34;;;;;;;1.13;0.90;;;;;;;;;;4933221;29;20055;-85
2023/01/02 13:53:11;;;;;;;0.73;0.73;;;;;;;;;;4949191;28;20064;-85
2023/01/02 13:55:39;;;;;;;1.05;0.90;;;;;;;;;;4949128;28;20047;-85
2023/01/02 13:58:12;;;;;;;1.25;0.90;;;;;;;;;;4951489;28;20050;-85
2023/01/02 14:00:40;;;;;;;;;;;;;;;;;;4937828;28;20427;-85
2023/01/02 14:03:19;;;;;;;1.27;0.82;;;;;;;;;;4946075;28;19922;-85
2023/01/02 14:05:57;;;;;;;0.70;0.70;;;;;;;;;;4947772;29;20411;-85
2023/01/02 14:08:26;;;;;;;0.50;0.50;;;;;;;;;;4932062;29;20058;-84
2023/01/02 14:11:14;;;;;;;0.65;0.65;;;;;;;;;;4933133;29;20367;-84
2023/01/02 14:13:49;;;;;;;3.58;0.90;;;;;;;;;;4920811;29;20415;-85
2023/01/02 14:16:36;;;;;;;0.70;0.70;;;;;;;;;;4948973;28;20539;-85
2023/01/02 14:19:12;;;;;;;1.50;0.93;;;;;;;;;;4949420;28;20066;-84
2023/01/02 14:21:59;;;;;;;1.40;0.77;;;;;;;;;;4892443;29;20048;-85
2023/01/02 14:24:26;;;;;;;8.07;1.00;;;;;;;;;;4954762;28;20046;-84
2023/01/02 14:27:01;;;;;;;1.58;1.25;;;;;;;;;;4969616;28;20043;-85
2023/01/02 14:29:30;;;;;;;1.17;1.08;;;;;;;;;;4948240;28;20060;-85
2023/01/02 14:32:04;;;;;;;4.30;0.88;;;;;;;;;;4915886;28;20047;-84
2023/01/02 14:34:33;;;;;;;1.33;0.85;;;;;;;;;;4931094;29;20056;-85
2023/01/02 14:37:01;;;;;;;0.70;0.70;;;;;;;;;;4929507;29;20067;-84
2023/01/02 14:39:35;;;;;;;0.90;0.90;;;;;;;;;;4945388;28;20057;-84
2023/01/02 14:45:03;;;;;;;1.13;1.05;;;;;;;;;;4952007;28;20054;-85
2023/01/02 14:47:38;;;;;;;1.25;0.73;;;;;;;;;;4969355;28;20542;-85
2023/01/02 14:50:11;;;;;;;0.77;0.77;;;;;;;;;;4969252;28;20062;-85
2023/01/02 14:52:42;;;;;;;0.70;0.70;;;;;;;;;;4967588;28;20058;-85
2023/01/02 14:55:13;;;;;;;5.30;1.60;;;;;;;;;;4951748;28;20274;-85
2023/01/02 14:57:43;;;;;;;1.70;1.00;;;;;;;;;;4950775;28;20409;-84
2023/01/02 15:00:31;;;;;;;1.40;0.88;;;;;;;;;;4968387;28;20034;-85
2023/01/02 15:03:18;;;;;;;0.98;0.98;;;;;;;;;;4969006;28;20051;-85
2023/01/02 15:05:50;;;;;;;1.40;0.80;;;;;;;;;;4965432;28;20055;-85
2023/01/02 15:08:20;;;;;;;0.90;0.90;;;;;;;;;;4947614;28;20421;-85
2023/01/02 15:13:02;;;;;;;3.13;1.10;;;;;;;;;;4951953;28;20051;-85
2023/01/02 15:13:50;;;;;;;1.30;1.02;;;;;;;;;;4935405;28;20047;-85
2023/01/02 15:16:37;;;;;;;4.80;1.23;;;;;;;;;;4953604;28;20051;-85
2023/01/02 15:19:05;;;;;;;3.20;2.90;;;;;;;;;;4970026;28;20058;-85
2023/01/02 15:21:38;;;;;;;1.05;1.05;;;;;;;;;;4967767;28;20053;-84